»·PEaware :: N927CF KPWT-KPDX

N927CF :: KPWT-KPDX

FLIGHT INFORMATION

Flight Status: Arrived
Operator: Privately registered:
United States
More flights under this callsign
Pilot: Matt W. (10744)
Aircraft: BEECH AIRCRAFT DEBONAIR BONANZA
(BE33)
More flights by this aircraft type
Origin: KPWT Bremerton Natl
United States
Destination: KPDX Portland Intl
United States
More flights between these airports :: More routes between these airports
Route: +OLM V287 BTG
File this flight plan on PilotEdge
Remarks:
Altitude:
(Current/Filed)
7,000ft
Speed:
(Current/Filed)
160kts
Departed: 10-Aug-18 03:44 PM
Arrived: 10-Aug-18 04:45 PM
Distance/Time
Traveled:
115nm/1:00
Distance/Time
To Go:
Arrived

Flight Plot

Page will automatically refresh every two minutes.

Flight plan parsing failed; only flown route is shown


Map Options




Map Legend


Flown Route
Filed Route
Departure Airport
Arrival Airport
Navaid (VOR, NDB)
Fix

Horizontal Profiles

Position Reports

Time Latitude Longitude Heading Altitude Ground
Speed
10-Aug-18 15:29 47.490853 -122.765583 297 444ft 0kts
10-Aug-18 15:30 47.491961 -122.765166 46 444ft 12kts
10-Aug-18 15:31 47.497136 -122.760209 27 445ft 19kts
10-Aug-18 15:32 47.497529 -122.759258 125 444ft 0kts
10-Aug-18 15:33 47.497529 -122.759258 125 444ft 0kts
10-Aug-18 15:34 47.497529 -122.759258 125 444ft 0kts
10-Aug-18 15:35 47.497529 -122.759258 125 444ft 0kts
10-Aug-18 15:36 47.497529 -122.759258 125 444ft 0kts
10-Aug-18 15:37 47.497529 -122.759258 125 444ft 0kts
10-Aug-18 15:38 47.497529 -122.759258 125 444ft 0kts
10-Aug-18 15:39 47.497529 -122.759258 125 444ft 0kts
10-Aug-18 15:40 47.497529 -122.759258 125 444ft 0kts
10-Aug-18 15:41 47.497529 -122.759258 125 444ft 0kts
10-Aug-18 15:42 47.497529 -122.759258 125 444ft 0kts
10-Aug-18 15:43 47.497529 -122.759258 125 444ft 0kts
10-Aug-18 15:44 47.497529 -122.759258 125 444ft 0kts
10-Aug-18 15:45 47.492501 -122.762448 204 793ft 53kts
10-Aug-18 15:46 47.477948 -122.768192 192 2091ft 61kts
10-Aug-18 15:47 47.460421 -122.767804 194 3089ft 64kts
10-Aug-18 15:48 47.442423 -122.773086 192 3828ft 85kts
10-Aug-18 15:49 47.416706 -122.780682 192 4824ft 97kts
10-Aug-18 15:50 47.390530 -122.787932 192 5828ft 95kts
10-Aug-18 15:51 47.365129 -122.794883 192 6736ft 90kts
10-Aug-18 15:52 47.335886 -122.803277 192 7003ft 130kts
10-Aug-18 15:53 47.297786 -122.813776 192 7000ft 145kts
10-Aug-18 15:54 47.257558 -122.824602 192 7005ft 148kts
10-Aug-18 15:55 47.216978 -122.835560 193 7011ft 149kts
10-Aug-18 15:56 47.175975 -122.846667 193 7015ft 150kts
10-Aug-18 15:57 47.134732 -122.857842 193 7017ft 151kts
10-Aug-18 15:58 47.093384 -122.868997 193 7017ft 151kts
10-Aug-18 15:59 47.052037 -122.880137 194 7018ft 151kts
10-Aug-18 16:00 47.010798 -122.891233 194 7018ft 151kts
10-Aug-18 16:01 46.969529 -122.900846 178 7015ft 154kts
10-Aug-18 16:02 46.927107 -122.890147 175 7018ft 155kts
10-Aug-18 16:03 46.887279 -122.879862 175 7021ft 155kts
10-Aug-18 16:04 46.845248 -122.869189 174 7021ft 154kts
10-Aug-18 16:05 46.803271 -122.858458 172 6983ft 152kts
10-Aug-18 16:06 46.762015 -122.847823 170 6984ft 151kts
10-Aug-18 16:07 46.720172 -122.837081 168 6984ft 154kts
10-Aug-18 16:08 46.677686 -122.826142 167 6984ft 156kts
10-Aug-18 16:09 46.634826 -122.815001 167 6983ft 157kts
10-Aug-18 16:10 46.591856 -122.803966 167 6983ft 157kts
10-Aug-18 16:11 46.548835 -122.792966 167 6983ft 157kts
10-Aug-18 16:12 46.505769 -122.781980 167 6983ft 157kts
10-Aug-18 16:13 46.462685 -122.771007 167 6983ft 157kts
10-Aug-18 16:14 46.419606 -122.760053 167 6983ft 157kts
10-Aug-18 16:15 46.376513 -122.749192 166 6982ft 157kts
10-Aug-18 16:16 46.333134 -122.738243 174 6971ft 161kts
10-Aug-18 16:17 46.287456 -122.726146 175 6986ft 170kts
10-Aug-18 16:18 46.240955 -122.714824 174 6984ft 168kts
10-Aug-18 16:19 46.195396 -122.703322 174 6983ft 165kts
10-Aug-18 16:20 46.150216 -122.691954 174 6983ft 165kts
10-Aug-18 16:21 46.105103 -122.680622 174 6983ft 164kts
10-Aug-18 16:22 46.060055 -122.669306 175 6978ft 165kts
10-Aug-18 16:23 46.014298 -122.657863 175 6964ft 168kts
10-Aug-18 16:24 45.968186 -122.646354 175 7004ft 171kts
10-Aug-18 16:25 45.920537 -122.634491 174 6989ft 176kts
10-Aug-18 16:26 45.873824 -122.622849 174 6985ft 178kts
10-Aug-18 16:27 45.825237 -122.610749 174 6985ft 177kts
10-Aug-18 16:28 45.776818 -122.598720 174 6985ft 176kts
10-Aug-18 16:29 45.728844 -122.592079 185 6985ft 172kts
10-Aug-18 16:30 45.695561 -122.546953 117 6335ft 181kts
10-Aug-18 16:31 45.673257 -122.483913 117 5393ft 175kts
10-Aug-18 16:32 45.651058 -122.422265 117 4469ft 174kts
10-Aug-18 16:33 45.629078 -122.362533 118 4038ft 142kts
10-Aug-18 16:34 45.609913 -122.309240 117 3984ft 155kts
10-Aug-18 16:35 45.582462 -122.277970 203 3983ft 132kts
10-Aug-18 16:36 45.547745 -122.296048 204 3804ft 141kts
10-Aug-18 16:37 45.513618 -122.314616 203 2990ft 126kts
10-Aug-18 16:38 45.482028 -122.331789 204 2983ft 118kts
10-Aug-18 16:39 45.480012 -122.364215 299 2986ft 106kts
10-Aug-18 16:40 45.501948 -122.392801 318 2984ft 107kts
10-Aug-18 16:41 45.520647 -122.430819 300 2487ft 132kts
10-Aug-18 16:42 45.536593 -122.471837 300 1816ft 111kts
10-Aug-18 16:43 45.551614 -122.510047 300 1224ft 110kts
10-Aug-18 16:44 45.564903 -122.544022 300 699ft 92kts
10-Aug-18 16:45 45.576691 -122.573975 299 245ft 85kts
10-Aug-18 16:46 45.585433 -122.597105 297 33ft 29kts
10-Aug-18 16:47 45.586386 -122.601507 275 32ft 0kts
10-Aug-18 16:48 45.585690 -122.604103 184 32ft 0kts
10-Aug-18 16:49 45.585690 -122.604103 184 32ft 0kts
10-Aug-18 16:50 45.585690 -122.604103 184 32ft 0kts
10-Aug-18 16:51 45.585690 -122.604103 184 32ft 0kts
10-Aug-18 16:52 45.585690 -122.604103 184 32ft 0kts
10-Aug-18 16:53 45.585690 -122.604103 184 32ft 0kts
10-Aug-18 16:54 45.585690 -122.604103 184 32ft 0kts
10-Aug-18 16:55 45.585690 -122.604103 184 32ft 0kts
10-Aug-18 16:56 45.585690 -122.604103 184 32ft 0kts
10-Aug-18 16:57 45.585690 -122.604103 184 32ft 0kts
10-Aug-18 16:58 45.585690 -122.604103 184 32ft 0kts
10-Aug-18 16:59 45.585690 -122.604103 184 32ft 0kts
10-Aug-18 17:00 45.585690 -122.604103 184 32ft 0kts

Navigation Log

Ident Type
Flight plan parsing failed, navigation log unavailable